Time;durP1;ratioP1;P1;durP2;ratioP2;P2;SDS_P1;SDS_P2;PMS_P1;PMS_P2;Temp;Humidity;BMP_temperature;BMP_pressure;BME280_temperature;BME280_humidity;BME280_pressure;Samples;Min_cycle;Max_cycle;Signal;HPM_P1;HPM_P2
2023/08/21 00:00:21;;;;;;;6.47;3.88;;;;;;;16.98;63.17;99898.56;5093158;28;20119;-54
2023/08/21 00:02:47;;;;;;;5.05;4.32;;;;;;;16.79;63.72;99894.22;5094739;28;20071;-58
2023/08/21 00:05:12;;;;;;;4.93;4.43;;;;;;;16.73;64.25;99900.25;5093958;28;20397;-57
2023/08/21 00:07:38;;;;;;;4.72;4.35;;;;;;;16.74;64.14;99896.56;5095120;28;20119;-58
2023/08/21 00:10:05;;;;;;;5.10;4.50;;;;;;;16.92;63.14;99910.81;5094866;28;20036;-57
2023/08/21 00:12:30;;;;;;;6.95;4.72;;;;;;;16.81;63.80;99899.47;5095082;28;20123;-56
2023/08/21 00:14:57;;;;;;;5.22;4.72;;;;;;;16.87;63.11;99907.78;5094542;28;20123;-58
2023/08/21 00:17:22;;;;;;;7.43;5.68;;;;;;;16.88;63.10;99900.50;5095085;28;20328;-56
2023/08/21 00:19:48;;;;;;;8.93;5.97;;;;;;;16.70;63.77;99908.69;5094756;28;20027;-55
2023/08/21 00:22:13;;;;;;;6.82;6.00;;;;;;;16.33;65.06;99900.75;5094704;28;20071;-58
2023/08/21 00:24:39;;;;;;;6.18;5.57;;;;;;;16.30;65.83;99902.91;5094569;28;20412;-54
2023/08/21 00:27:04;;;;;;;7.57;6.28;;;;;;;16.27;66.11;99908.66;5094532;28;20043;-57
2023/08/21 00:29:30;;;;;;;7.78;6.47;;;;;;;16.17;66.27;99896.09;5094851;28;20031;-53
2023/08/21 00:31:55;;;;;;;6.43;5.93;;;;;;;16.23;65.91;99915.38;5077845;28;20035;-56
2023/08/21 00:34:21;;;;;;;8.90;6.47;;;;;;;16.45;64.53;99916.69;5094506;28;20036;-55
2023/08/21 00:36:46;;;;;;;8.27;6.30;;;;;;;16.27;65.07;99911.34;5094480;28;20461;-61
2023/08/21 00:39:12;;;;;;;7.72;6.35;;;;;;;16.07;66.20;99911.53;5095352;28;20039;-57
2023/08/21 00:41:38;;;;;;;9.38;6.57;;;;;;;15.84;66.13;99868.81;5094337;28;20028;-57
2023/08/21 00:44:03;;;;;;;7.20;6.50;;;;;;;15.84;66.21;99876.09;5080163;28;20374;-57
2023/08/21 00:46:30;;;;;;;7.82;6.07;;;;;;;16.19;65.72;99909.44;5094180;28;20028;-53
2023/08/21 00:48:56;;;;;;;7.35;6.65;;;;;;;15.89;66.55;99888.13;5094670;28;20040;-56
2023/08/21 00:51:22;;;;;;;9.50;6.53;;;;;;;16.00;66.63;99913.19;5094028;28;20366;-58
2023/08/21 00:53:47;;;;;;;9.55;6.20;;;;;;;15.87;66.57;99883.88;5094518;28;20024;-61
2023/08/21 00:56:14;;;;;;;8.10;6.57;;;;;;;15.84;67.32;99917.41;5094135;28;20447;-57
2023/08/21 00:58:40;;;;;;;6.90;6.22;;;;;;;15.75;68.06;99918.34;5093484;28;20051;-54
2023/08/21 01:01:06;;;;;;;9.75;6.70;;;;;;;15.82;67.56;99911.31;5093594;28;20032;-58
2023/08/21 01:03:31;;;;;;;8.88;6.38;;;;;;;15.72;67.94;99910.56;5093692;28;20038;-57
2023/08/21 01:05:57;;;;;;;9.02;6.80;;;;;;;15.65;68.26;99908.47;5093710;28;20043;-58
2023/08/21 01:08:35;;;;;;;8.30;6.47;;;;;;;15.79;68.10;99917.91;5094002;28;20093;-56
2023/08/21 01:11:26;;;;;;;9.63;6.72;;;;;;;15.72;68.70;99914.09;5093642;28;20047;-56
2023/08/21 01:13:52;;;;;;;8.57;6.50;;;;;;;15.60;68.81;99901.88;5094027;28;20047;-55
2023/08/21 01:16:19;;;;;;;8.60;6.97;;;;;;;15.56;68.71;99914.81;5092997;28;20036;-56
2023/08/21 01:18:47;;;;;;;8.55;7.13;;;;;;;15.61;68.60;99915.19;5079678;28;20032;-56
2023/08/21 01:21:13;;;;;;;9.20;6.95;;;;;;;15.57;68.76;99921.06;5094024;28;20043;-55
2023/08/21 01:23:41;;;;;;;7.93;7.10;;;;;;;15.47;68.61;99899.56;5092292;28;20032;-54
2023/08/21 01:26:07;;;;;;;7.40;6.70;;;;;;;15.64;68.42;99922.13;5093127;28;20032;-56
2023/08/21 01:28:34;;;;;;;8.20;6.38;;;;;;;15.73;68.07;99925.75;5093598;28;20416;-55
2023/08/21 01:31:18;;;;;;;10.15;7.13;;;;;;;15.73;67.91;99909.56;5093150;28;20630;-55
2023/08/21 01:34:06;;;;;;;16.58;10.65;;;;;;;15.76;68.17;99926.28;5093126;28;20028;-58
2023/08/21 01:36:32;;;;;;;8.13;7.20;;;;;;;15.64;68.11;99928.38;5093576;28;20089;-57
2023/08/21 01:38:58;;;;;;;12.35;7.38;;;;;;;15.71;67.76;99911.56;5092594;28;20024;-56
2023/08/21 01:41:24;;;;;;;10.55;6.65;;;;;;;15.44;68.95;99921.44;5092951;28;20107;-55
2023/08/21 01:43:50;;;;;;;8.13;7.15;;;;;;;15.35;69.35;99923.22;5093151;28;20040;-57
2023/08/21 01:46:15;;;;;;;8.02;7.03;;;;;;;15.32;69.27;99924.34;5093585;28;20039;-56
2023/08/21 01:48:41;;;;;;;12.00;7.05;;;;;;;15.18;69.69;99923.03;5093072;28;20411;-57
2023/08/21 01:51:07;;;;;;;7.88;6.68;;;;;;;15.19;69.99;99935.50;5092118;28;20032;-56
2023/08/21 01:53:33;;;;;;;8.40;6.97;;;;;;;15.06;69.81;99913.44;5093264;28;20024;-55
2023/08/21 01:55:59;;;;;;;8.30;7.50;;;;;;;15.23;69.15;99924.41;5093260;28;20339;-49
2023/08/21 01:58:24;;;;;;;9.82;6.90;;;;;;;15.17;69.58;99932.13;5092688;28;20123;-53
2023/08/21 02:00:50;;;;;;;9.77;6.95;;;;;;;15.18;69.70;99931.13;5092258;28;20031;-53
2023/08/21 02:03:15;;;;;;;8.32;6.72;;;;;;;15.26;69.22;99935.75;5093031;28;20028;-57
2023/08/21 02:05:41;;;;;;;8.30;7.00;;;;;;;15.07;69.61;99925.91;5093190;28;20829;-57
2023/08/21 02:08:10;;;;;;;13.05;11.30;;;;;;;14.95;70.78;99941.47;5092935;28;20028;-56
2023/08/21 02:10:35;;;;;;;9.55;7.45;;;;;;;14.94;70.29;99926.28;5091849;28;20046;-56
2023/08/21 02:13:01;;;;;;;13.68;7.82;;;;;;;14.81;70.92;99932.00;5093009;28;20036;-57
2023/08/21 02:15:27;;;;;;;9.85;7.00;;;;;;;14.91;69.81;99915.78;5093036;28;20032;-55
2023/08/21 02:17:52;;;;;;;7.50;6.07;;;;;;;15.12;69.25;99933.56;5092452;28;20107;-58
2023/08/21 02:20:18;;;;;;;9.02;6.32;;;;;;;15.09;68.87;99934.72;5092746;28;20040;-57
2023/08/21 02:22:43;;;;;;;7.05;6.35;;;;;;;14.99;69.62;99933.91;5092807;28;20059;-57
2023/08/21 02:25:09;;;;;;;8.00;6.32;;;;;;;14.81;70.22;99926.63;5093007;28;20024;-53
2023/08/21 02:27:34;;;;;;;7.53;6.28;;;;;;;14.73;70.97;99935.47;5092100;28;20510;-55
2023/08/21 02:30:00;;;;;;;9.20;5.82;;;;;;;14.70;71.05;99935.72;5091545;28;20467;-55
2023/08/21 02:32:26;;;;;;;7.95;6.05;;;;;;;14.69;71.32;99944.78;5092341;28;20474;-57
2023/08/21 02:34:51;;;;;;;9.20;6.40;;;;;;;14.68;71.57;99932.31;5093080;28;20446;-57
2023/08/21 02:37:16;;;;;;;8.20;6.60;;;;;;;14.71;71.71;99932.09;5092522;28;20039;-56
2023/08/21 02:39:42;;;;;;;8.88;5.97;;;;;;;14.56;70.85;99890.41;5089384;28;20032;-55
2023/08/21 02:42:07;;;;;;;11.50;5.53;;;;;;;14.82;70.42;99922.09;5091997;28;20031;-57
2023/08/21 02:44:33;;;;;;;7.00;5.97;;;;;;;14.88;70.14;99924.19;5092882;28;20047;-54
2023/08/21 02:46:58;;;;;;;8.32;5.60;;;;;;;14.88;70.36;99932.28;5092077;28;20357;-57
2023/08/21 02:49:24;;;;;;;9.50;6.22;;;;;;;14.91;70.19;99931.97;5092317;28;20036;-55
2023/08/21 02:51:49;;;;;;;9.77;5.90;;;;;;;14.90;70.02;99933.84;5092396;28;20032;-54
2023/08/21 02:54:15;;;;;;;5.75;5.15;;;;;;;14.91;70.57;99926.56;5074329;28;20032;-53
2023/08/21 02:56:40;;;;;;;6.88;5.18;;;;;;;14.62;70.50;99887.97;5092258;28;20075;-54
2023/08/21 02:59:06;;;;;;;7.95;5.47;;;;;;;14.92;70.67;99936.34;5092068;28;20089;-50
2023/08/21 03:01:31;;;;;;;7.47;5.10;;;;;;;14.90;70.50;99931.13;5091618;28;20046;-52
2023/08/21 03:03:57;;;;;;;8.38;5.22;;;;;;;14.97;70.70;99930.53;5092331;28;20060;-53
2023/08/21 03:06:22;;;;;;;5.88;4.57;;;;;;;15.02;70.63;99931.78;5092278;28;20123;-51
2023/08/21 03:08:48;;;;;;;8.05;4.82;;;;;;;15.13;69.42;99922.63;5091715;28;20067;-50
2023/08/21 03:11:13;;;;;;;11.05;4.97;;;;;;;15.13;69.79;99932.56;5091589;28;20106;-52
2023/08/21 03:13:39;;;;;;;8.10;4.85;;;;;;;15.16;69.66;99934.94;5091783;28;20097;-52
2023/08/21 03:16:04;;;;;;;6.80;4.93;;;;;;;15.36;68.87;99946.50;5092071;28;20036;-55
2023/08/21 03:18:31;;;;;;;7.07;5.03;;;;;;;15.28;69.32;99949.94;5091816;28;20145;-57
2023/08/21 03:20:57;;;;;;;5.93;4.35;;;;;;;15.28;69.45;99939.16;5091816;28;20039;-54
2023/08/21 03:23:23;;;;;;;5.43;4.57;;;;;;;15.34;69.48;99948.50;5091720;28;20028;-56
2023/08/21 03:25:52;;;;;;;7.22;4.63;;;;;;;15.43;69.46;99942.19;5091161;28;20461;-57
2023/08/21 03:28:17;;;;;;;5.55;4.22;;;;;;;15.44;68.87;99945.72;5073556;28;20026;-57
2023/08/21 03:30:43;;;;;;;5.78;4.50;;;;;;;15.47;68.74;99931.94;5091210;28;20024;-60
2023/08/21 03:33:08;;;;;;;9.55;4.40;;;;;;;15.06;68.54;99854.97;5091778;28;20016;-60
2023/08/21 03:35:34;;;;;;;7.95;4.07;;;;;;;15.67;68.03;99940.72;5073396;28;20104;-56
2023/08/21 03:37:59;;;;;;;7.15;4.32;;;;;;;15.66;68.23;99920.13;5073478;28;20420;-57
2023/08/21 03:40:25;;;;;;;6.18;4.07;;;;;;;16.15;66.17;99953.97;5092505;28;20024;-53
2023/08/21 03:42:50;;;;;;;9.40;4.05;;;;;;;16.41;65.50;99942.34;5094720;28;20039;-55
2023/08/21 03:45:16;;;;;;;8.80;3.78;;;;;;;17.43;62.12;99939.75;5094900;28;20061;-56
2023/08/21 03:47:41;;;;;;;5.32;3.35;;;;;;;18.80;58.09;99941.88;5094458;28;20028;-56
2023/08/21 03:50:07;;;;;;;5.68;3.30;;;;;;;20.16;54.01;99934.50;5095153;28;20020;-56
2023/08/21 03:52:32;;;;;;;5.00;3.05;;;;;;;21.41;50.05;99936.63;5095229;28;20478;-58
2023/08/21 03:54:58;;;;;;;6.25;3.00;;;;;;;22.38;47.18;99937.09;5077035;28;20030;-57
2023/08/21 03:57:23;;;;;;;4.28;2.78;;;;;;;22.67;45.22;99915.28;5094702;28;20031;-56
2023/08/21 03:59:49;;;;;;;5.30;2.78;;;;;;;23.53;43.62;99938.53;5095168;28;20373;-58
2023/08/21 04:02:15;;;;;;;3.20;2.60;;;;;;;24.25;42.20;99934.44;5079535;28;20035;-56
2023/08/21 04:04:40;;;;;;;3.83;2.97;;;;;;;24.93;40.18;99931.34;5094548;28;20125;-63
2023/08/21 04:07:06;;;;;;;6.57;3.35;;;;;;;25.62;38.29;99925.38;5094368;28;20028;-65
2023/08/21 04:09:31;;;;;;;10.10;3.83;;;;;;;25.81;37.07;99939.16;5095021;28;20035;-63
2023/08/21 04:11:57;;;;;;;7.82;2.70;;;;;;;26.06;36.55;99941.09;5094367;28;20039;-65
2023/08/21 04:14:22;;;;;;;2.40;2.20;;;;;;;26.91;35.32;99936.91;5094112;28;20090;-63
2023/08/21 04:16:48;;;;;;;6.57;2.42;;;;;;;27.59;33.64;99908.53;5094523;28;20027;-64
2023/08/21 04:19:13;;;;;;;5.10;2.28;;;;;;;28.64;32.33;99930.06;5094730;28;20033;-64
2023/08/21 04:21:39;;;;;;;4.85;2.40;;;;;;;29.32;30.90;99937.84;5094608;28;20054;-64
2023/08/21 04:24:05;;;;;;;6.10;2.10;;;;;;;30.03;30.01;99943.06;5093850;28;20105;-63
2023/08/21 04:26:30;;;;;;;4.32;2.10;;;;;;;30.74;28.97;99936.09;5093932;28;20032;-64
2023/08/21 04:28:56;;;;;;;3.53;2.20;;;;;;;31.36;27.56;99934.13;5094833;28;20032;-65
2023/08/21 04:31:21;;;;;;;7.00;2.15;;;;;;;31.90;26.86;99935.22;5094305;28;20030;-63
2023/08/21 04:33:47;;;;;;;3.30;1.77;;;;;;;32.50;25.73;99931.53;5093921;28;20034;-64
2023/08/21 04:36:16;;;;;;;2.20;1.60;;;;;;;32.82;25.61;99943.63;5093607;28;20084;-64
2023/08/21 04:38:43;;;;;;;4.97;1.88;;;;;;;33.05;24.87;99934.03;5076057;28;20043;-66
2023/08/21 04:41:09;;;;;;;3.92;2.33;;;;;;;33.60;24.05;99944.72;5093735;28;20062;-63
2023/08/21 04:43:35;;;;;;;1.95;1.60;;;;;;;33.93;23.28;99929.47;5093757;28;20024;-64
2023/08/21 04:46:01;;;;;;;2.97;1.48;;;;;;;34.41;22.52;99939.47;5093848;28;20035;-65
2023/08/21 04:48:26;;;;;;;2.83;1.52;;;;;;;34.92;22.11;99940.44;5091120;28;20032;-64
2023/08/21 04:50:52;;;;;;;4.72;2.30;;;;;;;35.55;21.39;99939.06;5092822;28;20024;-65
2023/08/21 04:53:17;;;;;;;4.38;1.98;;;;;;;35.85;21.27;99939.94;5075550;28;20756;-64
2023/08/21 04:55:43;;;;;;;3.60;1.83;;;;;;;36.07;20.71;99947.03;5092715;28;20028;-65
2023/08/21 04:58:09;;;;;;;4.03;1.48;;;;;;;36.23;20.54;99942.16;5093396;28;20028;-66
2023/08/21 05:00:35;;;;;;;1.60;1.50;;;;;;;36.40;19.39;99943.66;5092818;28;20108;-64
2023/08/21 05:03:01;;;;;;;2.33;1.60;;;;;;;36.49;19.91;99892.53;5093275;28;20032;-63
2023/08/21 05:05:26;;;;;;;2.95;1.45;;;;;;;37.27;18.80;99927.06;5090181;28;20044;-66
2023/08/21 05:07:53;;;;;;;2.70;1.20;;;;;;;37.52;18.61;99917.47;5074981;28;20024;-64
2023/08/21 05:10:20;;;;;;;2.67;1.70;;;;;;;37.85;18.43;99945.44;5093487;28;20071;-64
2023/08/21 05:12:46;;;;;;;2.83;1.17;;;;;;;38.26;17.74;99937.50;5075928;28;20040;-65
2023/08/21 05:15:11;;;;;;;2.30;1.30;;;;;;;39.03;17.39;99938.81;5093192;28;20135;-64
2023/08/21 05:17:37;;;;;;;4.15;1.27;;;;;;;39.59;16.50;99935.91;5092535;28;20110;-65
2023/08/21 05:20:04;;;;;;;1.65;1.55;;;;;;;39.96;16.34;99940.63;5092516;28;20028;-65
2023/08/21 05:22:30;;;;;;;1.85;1.10;;;;;;;38.89;16.42;99947.19;5093407;28;20051;-63
2023/08/21 05:24:55;;;;;;;5.18;1.40;;;;;;;38.50;17.33;99947.72;5093518;28;20024;-66
2023/08/21 05:27:21;;;;;;;2.50;1.40;;;;;;;39.52;16.41;99943.91;5093339;28;20036;-64
2023/08/21 05:29:46;;;;;;;2.83;1.40;;;;;;;39.98;15.68;99943.94;5093370;28;20064;-64
2023/08/21 05:32:12;;;;;;;2.92;1.33;;;;;;;39.48;16.31;99948.47;5093289;28;20085;-64
2023/08/21 05:34:37;;;;;;;2.60;1.38;;;;;;;40.16;16.05;99934.50;5093335;28;20338;-64
2023/08/21 05:37:03;;;;;;;1.30;1.20;;;;;;;41.09;15.00;99941.47;5093430;28;20024;-64
2023/08/21 05:39:28;;;;;;;3.95;1.67;;;;;;;41.77;14.62;99938.25;5093028;28;20441;-64
2023/08/21 05:41:54;;;;;;;3.13;1.33;;;;;;;41.19;14.63;99944.00;5092556;28;20104;-65
2023/08/21 05:44:19;;;;;;;1.60;1.50;;;;;;;40.72;15.29;99938.91;5092936;28;20072;-65
2023/08/21 05:46:45;;;;;;;2.45;1.15;;;;;;;41.40;14.61;99929.31;5093375;28;20036;-62
2023/08/21 05:49:10;;;;;;;3.55;1.60;;;;;;;42.00;14.13;99935.25;5093190;28;20032;-65
2023/08/21 05:51:36;;;;;;;1.50;1.40;;;;;;;41.65;13.88;99924.03;5092750;28;20124;-66
2023/08/21 05:54:01;;;;;;;2.40;1.50;;;;;;;42.29;13.71;99931.69;5093204;28;20153;-64
2023/08/21 05:56:27;;;;;;;4.43;1.63;;;;;;;43.13;13.20;99921.84;5093538;28;20100;-65
2023/08/21 05:58:53;;;;;;;2.97;1.80;;;;;;;43.34;12.88;99917.41;5092660;28;20115;-64
2023/08/21 06:01:18;;;;;;;4.88;1.40;;;;;;;43.51;12.95;99934.19;5092390;28;20024;-64
2023/08/21 06:03:44;;;;;;;5.70;1.67;;;;;;;44.08;12.13;99928.97;5074664;28;20117;-64
2023/08/21 06:06:09;;;;;;;1.60;1.50;;;;;;;43.94;11.84;99920.84;5092716;28;20111;-65
2023/08/21 06:08:35;;;;;;;4.07;1.60;;;;;;;43.14;12.54;99925.47;5092804;28;20370;-63
2023/08/21 06:11:01;;;;;;;3.05;1.58;;;;;;;42.28;12.64;99895.47;5092348;28;20044;-64
2023/08/21 06:13:26;;;;;;;5.72;1.50;;;;;;;42.69;13.00;99921.28;5093035;28;20032;-63
2023/08/21 06:15:53;;;;;;;4.85;1.65;;;;;;;40.92;14.39;99925.44;5093162;28;20412;-63
2023/08/21 06:18:18;;;;;;;2.80;1.40;;;;;;;40.73;14.18;99904.91;5092050;28;20055;-65
2023/08/21 06:20:44;;;;;;;2.60;1.30;;;;;;;41.25;13.96;99916.59;5092582;28;20144;-65
2023/08/21 06:23:11;;;;;;;2.22;1.55;;;;;;;41.13;13.81;99923.66;5092588;28;20036;-64
2023/08/21 06:25:36;;;;;;;2.08;1.60;;;;;;;40.64;14.17;99918.06;5092837;28;20024;-65
2023/08/21 06:28:02;;;;;;;3.10;1.45;;;;;;;40.51;13.79;99916.19;5092872;28;20051;-62
2023/08/21 06:30:28;;;;;;;1.92;1.50;;;;;;;40.48;14.29;99907.28;5092626;28;20043;-64
2023/08/21 06:32:55;;;;;;;25.73;3.28;;;;;;;38.54;15.41;99917.97;5091752;28;20020;-64
2023/08/21 06:35:20;;;;;;;5.10;1.50;;;;;;;36.90;17.33;99909.94;5092940;28;20042;-64
2023/08/21 06:37:46;;;;;;;10.75;2.30;;;;;;;35.63;17.91;99907.00;5091991;28;20028;-64
2023/08/21 06:40:11;;;;;;;4.43;1.48;;;;;;;36.03;17.90;99909.75;5091823;28;20369;-62
2023/08/21 06:42:37;;;;;;;1.42;1.33;;;;;;;37.10;17.23;99891.28;5092259;28;20044;-61
2023/08/21 06:45:05;;;;;;;2.13;1.30;;;;;;;37.16;16.94;99906.84;5092683;28;20031;-61
2023/08/21 06:47:31;;;;;;;3.53;1.70;;;;;;;35.21;19.06;99906.41;5092410;28;20077;-61
2023/08/21 06:49:56;;;;;;;33.33;4.72;;;;;;;35.06;18.71;99899.81;5092272;28;20464;-61
2023/08/21 06:52:22;;;;;;;12.18;2.25;;;;;;;34.62;19.35;99908.88;5091760;28;20028;-61
2023/08/21 06:54:47;;;;;;;9.07;2.00;;;;;;;35.97;18.22;99910.91;5087817;28;20040;-60
2023/08/21 06:57:13;;;;;;;5.63;1.55;;;;;;;38.60;15.85;99917.56;5090168;28;20032;-56
2023/08/21 06:59:39;;;;;;;12.15;1.80;;;;;;;41.32;13.79;99911.28;5089203;28;20139;-61
2023/08/21 07:02:06;;;;;;;6.32;1.48;;;;;;;42.05;13.10;99921.03;5088231;28;20673;-63
2023/08/21 07:04:33;;;;;;;46.85;5.82;;;;;;;39.50;14.15;99923.78;5091981;28;20477;-57
2023/08/21 07:06:59;;;;;;;7.65;1.83;;;;;;;40.29;14.28;99926.34;5092211;28;20082;-58
2023/08/21 07:09:24;;;;;;;3.00;2.30;;;;;;;42.16;12.67;99921.50;5091926;28;20117;-59
2023/08/21 07:11:50;;;;;;;4.32;1.73;;;;;;;40.50;13.32;99934.16;5083558;28;20148;-58
2023/08/21 07:14:16;;;;;;;3.67;1.17;;;;;;;37.63;15.53;99927.38;5094314;28;20036;-59
2023/08/21 07:16:43;;;;;;;2.83;1.42;;;;;;;37.30;15.48;99926.44;5096093;28;20038;-58
2023/08/21 07:19:08;;;;;;;2.88;1.40;;;;;;;34.32;18.45;99938.38;5095577;28;20333;-61
2023/08/21 07:21:36;;;;;;;38.00;5.47;;;;;;;32.19;21.58;99917.41;5095607;28;20024;-61
2023/08/21 07:24:04;;;;;;;7.45;1.67;;;;;;;34.51;19.40;99937.81;5096455;28;20042;-59
2023/08/21 07:26:30;;;;;;;13.07;1.90;;;;;;;37.98;16.43;99932.69;5095076;28;20032;-58
2023/08/21 07:28:55;;;;;;;6.90;1.58;;;;;;;41.16;13.19;99919.38;5094531;28;20424;-59
2023/08/21 07:31:22;;;;;;;5.15;1.83;;;;;;;43.45;11.54;99918.66;5095287;28;20044;-56
2023/08/21 07:33:47;;;;;;;4.90;1.60;;;;;;;43.92;11.38;99925.19;5094522;28;20427;-58
2023/08/21 07:36:18;;;;;;;3.60;1.50;;;;;;;42.37;12.45;99927.19;5094417;28;20047;-57
2023/08/21 07:38:44;;;;;;;6.90;1.50;;;;;;;39.79;14.18;99924.50;5095293;28;20113;-57
2023/08/21 07:41:11;;;;;;;3.58;1.73;;;;;;;37.20;15.99;99921.84;5094540;28;20450;-59
2023/08/21 07:43:38;;;;;;;2.42;1.48;;;;;;;38.75;15.35;99927.63;5094991;28;20043;-60
2023/08/21 07:46:05;;;;;;;3.15;1.70;;;;;;;42.03;12.78;99924.16;5095313;28;20074;-58
2023/08/21 07:48:31;;;;;;;1.70;1.60;;;;;;;43.96;10.78;99915.66;5094843;28;20119;-59
2023/08/21 07:50:56;;;;;;;3.17;1.45;;;;;;;44.79;10.14;99917.69;5095459;28;20115;-57
2023/08/21 07:53:22;;;;;;;2.85;1.65;;;;;;;45.10;9.87;99919.06;5095192;28;20035;-59
2023/08/21 07:55:48;;;;;;;3.33;1.50;;;;;;;44.02;10.40;99914.31;5093580;28;20027;-58
2023/08/21 07:58:13;;;;;;;2.70;1.40;;;;;;;40.38;12.99;99913.19;5076381;28;20519;-56
2023/08/21 08:00:39;;;;;;;4.03;1.30;;;;;;;37.20;16.09;99919.06;5095380;28;20124;-61
2023/08/21 08:03:08;;;;;;;4.90;1.83;;;;;;;33.67;18.59;99923.09;5083165;28;20028;-56
2023/08/21 08:05:34;;;;;;;1.45;1.30;;;;;;;32.38;20.76;99915.09;5094313;28;20075;-59
2023/08/21 08:07:59;;;;;;;3.20;1.45;;;;;;;33.31;19.60;99912.75;5093339;28;20115;-60
2023/08/21 08:10:25;;;;;;;2.08;1.50;;;;;;;32.71;19.83;99909.47;5086361;28;20155;-58
2023/08/21 08:12:50;;;;;;;2.00;1.65;;;;;;;31.69;21.07;99905.66;5094788;28;20032;-58
2023/08/21 08:15:18;;;;;;;4.68;1.50;;;;;;;30.18;22.82;99912.09;5094359;28;20047;-58
2023/08/21 08:17:45;;;;;;;4.47;1.50;;;;;;;29.02;24.14;99906.66;5093492;28;20039;-58
2023/08/21 08:20:12;;;;;;;11.20;1.75;;;;;;;27.94;25.70;99889.34;5095074;28;20067;-59
2023/08/21 08:22:37;;;;;;;2.83;1.17;;;;;;;27.58;26.40;99910.47;5094230;28;20032;-56
2023/08/21 08:25:05;;;;;;;7.07;1.73;;;;;;;27.19;27.35;99912.66;5092787;28;20109;-59
2023/08/21 08:27:32;;;;;;;7.13;1.77;;;;;;;27.02;27.19;99907.84;5093811;28;20032;-57
2023/08/21 08:29:57;;;;;;;5.78;1.63;;;;;;;26.63;28.48;99896.22;5094313;28;20048;-56
2023/08/21 08:32:23;;;;;;;6.38;1.48;;;;;;;26.39;29.17;99903.44;5094229;28;20063;-56
2023/08/21 08:34:49;;;;;;;6.45;1.42;;;;;;;26.24;28.82;99899.16;5094159;28;20453;-53
2023/08/21 08:37:14;;;;;;;36.28;3.03;;;;;;;25.59;28.77;99868.25;5094004;28;20074;-53
2023/08/21 08:39:40;;;;;;;2.10;1.70;;;;;;;25.17;30.24;99900.72;5093415;28;20044;-55
2023/08/21 08:42:07;;;;;;;4.95;1.88;;;;;;;24.91;30.64;99897.03;5093620;28;20028;-56
2023/08/21 08:44:35;;;;;;;10.13;2.53;;;;;;;24.56;31.52;99894.59;5094210;28;20028;-56
2023/08/21 08:47:02;;;;;;;34.72;4.57;;;;;;;24.44;31.47;99900.72;5093133;28;20100;-54
2023/08/21 08:49:28;;;;;;;5.88;1.90;;;;;;;24.12;31.96;99881.44;5094093;28;20086;-54
2023/08/21 08:51:54;;;;;;;7.70;1.73;;;;;;;24.11;32.67;99887.09;5093860;28;20032;-52
2023/08/21 08:54:21;;;;;;;3.30;2.03;;;;;;;24.29;34.29;99890.03;5093160;28;20032;-56
2023/08/21 08:56:47;;;;;;;6.03;1.90;;;;;;;24.35;33.91;99880.97;5093233;28;20428;-56
2023/08/21 08:59:14;;;;;;;8.00;2.08;;;;;;;24.41;34.06;99882.00;5093259;28;20024;-56
2023/08/21 09:01:41;;;;;;;5.72;2.10;;;;;;;24.25;33.99;99849.63;5093706;28;20388;-56
2023/08/21 09:04:06;;;;;;;5.82;1.83;;;;;;;24.57;33.73;99877.97;5093667;28;20050;-64
2023/08/21 09:06:32;;;;;;;9.35;2.03;;;;;;;24.82;32.95;99879.16;5093210;28;20032;-57
2023/08/21 09:08:58;;;;;;;7.80;1.90;;;;;;;25.14;32.11;99871.84;5093361;28;20020;-56
2023/08/21 09:11:24;;;;;;;6.88;1.80;;;;;;;25.57;32.21;99867.63;5093044;28;20129;-57
2023/08/21 09:13:51;;;;;;;8.23;1.85;;;;;;;25.73;31.71;99881.84;5064027;28;20446;-63
2023/08/21 09:16:20;;;;;;;5.25;1.98;;;;;;;25.87;31.67;99872.44;5075967;28;20608;-63
2023/08/21 09:18:48;;;;;;;9.75;2.22;;;;;;;25.69;31.00;99870.50;5073278;28;20032;-63
2023/08/21 09:21:18;;;;;;;3.00;1.95;;;;;;;25.43;31.77;99875.03;5073881;28;20035;-60
2023/08/21 09:23:45;;;;;;;5.22;1.90;;;;;;;25.12;32.27;99864.94;5081666;28;20032;-62
2023/08/21 09:26:19;;;;;;;3.67;1.85;;;;;;;25.02;32.12;99870.88;5077021;28;20063;-64
2023/08/21 09:28:44;;;;;;;3.65;2.10;;;;;;;24.78;33.36;99874.13;5093143;28;20061;-64
2023/08/21 09:31:10;;;;;;;5.70;1.70;;;;;;;24.50;33.43;99834.19;5091718;28;20125;-67
2023/08/21 09:33:36;;;;;;;5.50;1.92;;;;;;;24.75;32.47;99835.41;5091457;28;20371;-63
2023/08/21 09:36:04;;;;;;;2.30;1.60;;;;;;;25.06;32.42;99859.25;5073381;28;20032;-62
2023/08/21 09:38:30;;;;;;;6.82;2.15;;;;;;;24.87;31.94;99862.94;5091170;28;20409;-63
2023/08/21 09:40:56;;;;;;;7.53;1.85;;;;;;;24.28;33.45;99851.94;5089553;28;20027;-62
2023/08/21 09:43:23;;;;;;;3.35;1.90;;;;;;;23.85;33.39;99858.69;5090554;28;20039;-62
2023/08/21 09:45:52;;;;;;;3.88;1.70;;;;;;;23.54;34.85;99830.94;5091887;28;20035;-61
2023/08/21 09:48:19;;;;;;;5.57;1.80;;;;;;;23.71;35.11;99850.47;5092919;28;20050;-64
2023/08/21 09:50:46;;;;;;;7.13;1.85;;;;;;;23.80;34.42;99854.69;5092656;28;20074;-64
2023/08/21 09:53:12;;;;;;;3.70;1.92;;;;;;;23.95;34.47;99853.63;5091623;28;20036;-64
2023/08/21 09:55:52;;;;;;;5.78;1.85;;;;;;;24.12;33.63;99845.03;5087231;28;20060;-64
2023/08/21 09:58:19;;;;;;;2.45;1.75;;;;;;;24.20;34.00;99850.25;5083587;28;21535;-64
2023/08/21 10:00:45;;;;;;;5.97;2.08;;;;;;;24.12;33.91;99850.50;5091363;28;20074;-64
2023/08/21 10:03:11;;;;;;;3.28;1.90;;;;;;;24.07;35.09;99848.38;5091163;28;20021;-64
2023/08/21 10:05:41;;;;;;;7.50;2.55;;;;;;;24.16;34.34;99836.19;5083592;28;20028;-66
2023/08/21 10:08:08;;;;;;;4.32;1.92;;;;;;;24.28;34.12;99851.94;5078533;28;20044;-63
2023/08/21 10:10:36;;;;;;;2.75;1.70;;;;;;;24.27;33.99;99842.03;5084744;28;20132;-66
2023/08/21 10:13:03;;;;;;;5.53;1.63;;;;;;;24.16;34.13;99851.75;5079241;28;20041;-64
2023/08/21 10:15:30;;;;;;;2.50;1.50;;;;;;;24.03;34.21;99844.41;5092480;28;20035;-65
2023/08/21 10:17:56;;;;;;;6.05;1.80;;;;;;;24.01;32.27;99849.22;5092341;28;20469;-65
2023/08/21 10:20:24;;;;;;;4.15;1.70;;;;;;;23.87;32.39;99843.78;5090725;28;20407;-63
2023/08/21 10:22:54;;;;;;;5.43;2.10;;;;;;;23.69;32.33;99806.13;5090212;28;20032;-65
2023/08/21 10:25:22;;;;;;;3.60;1.80;;;;;;;23.86;32.25;99838.50;5091925;28;20344;-65
2023/08/21 10:27:53;;;;;;;4.00;1.80;;;;;;;23.59;33.17;99825.66;5091588;28;20036;-66
2023/08/21 10:30:24;;;;;;;6.05;1.67;;;;;;;23.74;33.26;99830.91;5091154;28;20040;-64
2023/08/21 10:32:54;;;;;;;4.20;1.67;;;;;;;23.60;32.73;99807.38;5073704;28;20025;-65
2023/08/21 10:35:23;;;;;;;3.42;1.90;;;;;;;23.86;32.42;99822.09;5071722;28;20485;-66
2023/08/21 10:38:16;;;;;;;5.47;1.75;;;;;;;23.90;33.19;99823.34;5074521;28;20088;-65
2023/08/21 10:41:08;;;;;;;2.78;1.90;;;;;;;24.01;32.91;99825.47;5091431;28;20043;-66
2023/08/21 10:43:39;;;;;;;4.35;1.90;;;;;;;24.03;32.13;99822.53;5055188;28;20029;-65
2023/08/21 10:46:05;;;;;;;2.95;1.83;;;;;;;23.90;32.11;99816.00;5056469;28;20107;-66
2023/08/21 10:48:31;;;;;;;3.70;2.05;;;;;;;23.51;32.75;99799.41;5092048;28;20040;-64
2023/08/21 10:51:00;;;;;;;5.80;2.00;;;;;;;23.51;32.72;99814.94;5096240;28;20036;-66
2023/08/21 10:53:27;;;;;;;3.13;1.63;;;;;;;23.53;32.68;99812.84;5081752;28;20097;-66
2023/08/21 10:55:54;;;;;;;3.53;1.85;;;;;;;23.34;33.53;99809.88;5095717;28;20036;-68
2023/08/21 10:58:19;;;;;;;2.92;1.90;;;;;;;22.87;33.34;99770.69;5094921;28;20061;-63
2023/08/21 11:00:45;;;;;;;5.55;2.03;;;;;;;22.91;33.30;99783.75;5095831;28;20134;-66
2023/08/21 11:03:10;;;;;;;3.67;1.70;;;;;;;23.04;34.23;99796.59;5094563;28;20614;-62
2023/08/21 11:05:36;;;;;;;5.20;2.00;;;;;;;23.11;33.57;99798.47;5094707;28;20032;-60
2023/08/21 11:08:01;;;;;;;3.70;1.60;;;;;;;23.31;33.48;99795.81;5093636;28;20414;-60
2023/08/21 11:10:30;;;;;;;3.92;2.20;;;;;;;23.56;33.75;99798.75;5093572;28;20409;-61
2023/08/21 11:13:00;;;;;;;5.90;2.22;;;;;;;23.66;33.21;99795.63;5093768;28;20036;-61
2023/08/21 11:15:28;;;;;;;4.15;2.25;;;;;;;23.72;34.11;99788.47;5093936;28;20661;-63
2023/08/21 11:17:58;;;;;;;5.00;1.98;;;;;;;23.72;33.81;99796.66;5092110;28;20020;-61
2023/08/21 11:20:32;;;;;;;3.20;1.92;;;;;;;23.67;33.93;99794.56;5094956;28;20024;-61
2023/08/21 11:23:05;;;;;;;3.97;2.10;;;;;;;23.61;33.44;99792.69;5096050;28;20472;-61
2023/08/21 11:25:31;;;;;;;5.88;2.33;;;;;;;23.51;34.52;99787.63;5095439;28;20038;-62
2023/08/21 11:27:56;;;;;;;1.95;1.60;;;;;;;23.44;33.55;99776.69;5094402;28;20314;-61